sensor_id;sensor_type;location;lat;lon;timestamp;pressure;altitude;pressure_sealevel;temperature;humidity
68141;BME280;54941;52.220;104.306;2023-03-03T00:01:17;96322.69;;;-8.29;88.05
68141;BME280;54941;52.220;104.306;2023-03-03T00:03:44;96319.56;;;-8.33;88.05
68141;BME280;54941;52.220;104.306;2023-03-03T00:06:12;96320.84;;;-8.40;88.36
68141;BME280;54941;52.220;104.306;2023-03-03T00:08:41;96319.78;;;-8.50;89.30
68141;BME280;54941;52.220;104.306;2023-03-03T00:11:07;96310.03;;;-8.41;89.36
68141;BME280;54941;52.220;104.306;2023-03-03T00:13:42;96318.81;;;-8.21;88.94
68141;BME280;54941;52.220;104.306;2023-03-03T00:16:13;96323.78;;;-8.07;88.74
68141;BME280;54941;52.220;104.306;2023-03-03T00:18:41;96318.88;;;-7.81;88.22
68141;BME280;54941;52.220;104.306;2023-03-03T00:21:23;96316.28;;;-8.07;87.07
68141;BME280;54941;52.220;104.306;2023-03-03T00:23:52;96316.38;;;-8.08;86.88
68141;BME280;54941;52.220;104.306;2023-03-03T00:26:21;96319.94;;;-8.12;87.55
68141;BME280;54941;52.220;104.306;2023-03-03T00:28:49;96329.06;;;-8.11;87.51
68141;BME280;54941;52.220;104.306;2023-03-03T00:31:18;96334.28;;;-7.88;87.11
68141;BME280;54941;52.220;104.306;2023-03-03T00:33:47;96342.00;;;-7.78;86.42
68141;BME280;54941;52.220;104.306;2023-03-03T00:36:28;96342.84;;;-7.92;86.48
68141;BME280;54941;52.220;104.306;2023-03-03T00:38:58;96340.94;;;-7.74;85.93
68141;BME280;54941;52.220;104.306;2023-03-03T00:41:26;96336.59;;;-7.58;85.80
68141;BME280;54941;52.220;104.306;2023-03-03T00:43:53;96334.31;;;-7.48;85.70
68141;BME280;54941;52.220;104.306;2023-03-03T00:46:21;96330.31;;;-7.38;85.29
68141;BME280;54941;52.220;104.306;2023-03-03T00:48:49;96335.78;;;-7.19;84.32
68141;BME280;54941;52.220;104.306;2023-03-03T00:51:26;96335.84;;;-7.20;84.17
68141;BME280;54941;52.220;104.306;2023-03-03T00:53:53;96338.47;;;-7.09;83.93
68141;BME280;54941;52.220;104.306;2023-03-03T00:56:21;96338.81;;;-6.88;83.50
68141;BME280;54941;52.220;104.306;2023-03-03T00:58:47;96338.63;;;-6.85;82.64
68141;BME280;54941;52.220;104.306;2023-03-03T01:01:14;96341.53;;;-6.66;81.65
68141;BME280;54941;52.220;104.306;2023-03-03T01:03:41;96339.22;;;-6.44;82.12
68141;BME280;54941;52.220;104.306;2023-03-03T01:06:07;96341.00;;;-6.33;81.59
68141;BME280;54941;52.220;104.306;2023-03-03T01:08:34;96335.66;;;-6.16;80.19
68141;BME280;54941;52.220;104.306;2023-03-03T01:11:04;96333.19;;;-5.93;78.98
68141;BME280;54941;52.220;104.306;2023-03-03T01:13:35;96335.22;;;-5.98;78.24
68141;BME280;54941;52.220;104.306;2023-03-03T01:16:03;96333.28;;;-5.94;78.65
68141;BME280;54941;52.220;104.306;2023-03-03T01:18:29;96332.38;;;-5.69;78.17
68141;BME280;54941;52.220;104.306;2023-03-03T01:20:56;96339.03;;;-5.33;77.33
68141;BME280;54941;52.220;104.306;2023-03-03T01:23:22;96347.91;;;-4.04;74.28
68141;BME280;54941;52.220;104.306;2023-03-03T01:25:49;96337.75;;;-2.75;68.18
68141;BME280;54941;52.220;104.306;2023-03-03T01:28:15;96330.03;;;-1.83;64.32
68141;BME280;54941;52.220;104.306;2023-03-03T01:30:43;96338.34;;;-1.92;63.98
68141;BME280;54941;52.220;104.306;2023-03-03T01:33:11;96341.41;;;-1.39;63.81
68141;BME280;54941;52.220;104.306;2023-03-03T01:35:42;96340.22;;;-1.16;61.65
68141;BME280;54941;52.220;104.306;2023-03-03T01:38:09;96337.00;;;-0.89;59.48
68141;BME280;54941;52.220;104.306;2023-03-03T01:40:36;96341.63;;;0.36;55.90
68141;BME280;54941;52.220;104.306;2023-03-03T01:43:02;96340.50;;;0.83;54.24
68141;BME280;54941;52.220;104.306;2023-03-03T01:45:29;96340.41;;;0.93;53.57
68141;BME280;54941;52.220;104.306;2023-03-03T01:48:03;96336.34;;;1.00;52.16
68141;BME280;54941;52.220;104.306;2023-03-03T01:50:35;96337.50;;;1.49;51.29
68141;BME280;54941;52.220;104.306;2023-03-03T01:53:05;96352.75;;;1.49;51.35
68141;BME280;54941;52.220;104.306;2023-03-03T01:55:37;96334.41;;;1.37;51.70
68141;BME280;54941;52.220;104.306;2023-03-03T01:58:07;96328.72;;;1.95;50.22
68141;BME280;54941;52.220;104.306;2023-03-03T02:00:35;96327.34;;;2.83;47.50
68141;BME280;54941;52.220;104.306;2023-03-03T02:03:04;96319.34;;;2.45;48.78
68141;BME280;54941;52.220;104.306;2023-03-03T02:05:31;96323.41;;;2.14;48.85
68141;BME280;54941;52.220;104.306;2023-03-03T02:07:58;96320.88;;;1.80;48.85
68141;BME280;54941;52.220;104.306;2023-03-03T02:10:25;96326.69;;;2.81;47.70
68141;BME280;54941;52.220;104.306;2023-03-03T02:12:54;96331.47;;;3.40;45.08
68141;BME280;54941;52.220;104.306;2023-03-03T02:15:23;96332.25;;;2.60;46.58
68141;BME280;54941;52.220;104.306;2023-03-03T02:17:51;96332.97;;;2.28;48.13
68141;BME280;54941;52.220;104.306;2023-03-03T02:20:28;96329.53;;;2.70;46.08
68141;BME280;54941;52.220;104.306;2023-03-03T02:23:00;96334.97;;;3.48;46.48
68141;BME280;54941;52.220;104.306;2023-03-03T02:25:33;96336.56;;;3.57;45.23
68141;BME280;54941;52.220;104.306;2023-03-03T02:28:03;96333.09;;;3.09;46.24
68141;BME280;54941;52.220;104.306;2023-03-03T02:30:30;96332.59;;;3.54;44.79
68141;BME280;54941;52.220;104.306;2023-03-03T02:33:01;96325.09;;;4.08;44.01
68141;BME280;54941;52.220;104.306;2023-03-03T02:35:30;96328.41;;;4.16;43.55
68141;BME280;54941;52.220;104.306;2023-03-03T02:38:04;96322.03;;;4.20;44.35
68141;BME280;54941;52.220;104.306;2023-03-03T02:40:36;96323.19;;;4.71;42.85
68141;BME280;54941;52.220;104.306;2023-03-03T02:43:06;96320.09;;;4.22;43.56
68141;BME280;54941;52.220;104.306;2023-03-03T02:45:33;96319.19;;;4.07;44.72
68141;BME280;54941;52.220;104.306;2023-03-03T02:47:59;96318.47;;;4.83;43.28
68141;BME280;54941;52.220;104.306;2023-03-03T02:50:26;96324.94;;;5.16;41.80
68141;BME280;54941;52.220;104.306;2023-03-03T02:52:52;96316.59;;;5.89;40.54
68141;BME280;54941;52.220;104.306;2023-03-03T02:55:19;96316.84;;;5.65;40.66
68141;BME280;54941;52.220;104.306;2023-03-03T02:57:45;96310.34;;;6.78;38.88
68141;BME280;54941;52.220;104.306;2023-03-03T03:00:13;96313.78;;;6.13;40.20
68141;BME280;54941;52.220;104.306;2023-03-03T03:02:40;96306.88;;;6.14;39.13
68141;BME280;54941;52.220;104.306;2023-03-03T03:05:07;96301.84;;;6.99;37.67
68141;BME280;54941;52.220;104.306;2023-03-03T03:07:33;96293.22;;;5.25;41.26
68141;BME280;54941;52.220;104.306;2023-03-03T03:10:00;96281.66;;;5.52;40.22
68141;BME280;54941;52.220;104.306;2023-03-03T03:12:26;96278.47;;;5.50;41.16
68141;BME280;54941;52.220;104.306;2023-03-03T03:14:52;96280.78;;;6.75;39.15
68141;BME280;54941;52.220;104.306;2023-03-03T03:17:20;96286.06;;;6.53;39.25
68141;BME280;54941;52.220;104.306;2023-03-03T03:19:47;96279.88;;;6.47;39.42
68141;BME280;54941;52.220;104.306;2023-03-03T03:22:13;96277.69;;;6.44;39.25
68141;BME280;54941;52.220;104.306;2023-03-03T03:24:39;96270.25;;;6.28;39.41
68141;BME280;54941;52.220;104.306;2023-03-03T03:27:06;96267.88;;;6.69;38.53
68141;BME280;54941;52.220;104.306;2023-03-03T03:29:32;96262.22;;;6.73;39.01
68141;BME280;54941;52.220;104.306;2023-03-03T03:31:59;96268.00;;;6.40;40.05
68141;BME280;54941;52.220;104.306;2023-03-03T03:34:27;96264.97;;;6.93;38.75
68141;BME280;54941;52.220;104.306;2023-03-03T03:36:53;96257.16;;;7.01;39.15
68141;BME280;54941;52.220;104.306;2023-03-03T03:39:20;96259.06;;;7.48;37.88
68141;BME280;54941;52.220;104.306;2023-03-03T03:41:46;96256.53;;;7.55;37.98
68141;BME280;54941;52.220;104.306;2023-03-03T03:44:12;96242.03;;;8.16;37.03
68141;BME280;54941;52.220;104.306;2023-03-03T03:46:39;96238.00;;;7.25;38.66
68141;BME280;54941;52.220;104.306;2023-03-03T03:49:05;96239.22;;;8.85;36.42
68141;BME280;54941;52.220;104.306;2023-03-03T03:51:33;96233.31;;;9.23;35.40
68141;BME280;54941;52.220;104.306;2023-03-03T03:54:00;96231.31;;;9.06;34.90
68141;BME280;54941;52.220;104.306;2023-03-03T03:56:26;96215.81;;;8.27;36.69
68141;BME280;54941;52.220;104.306;2023-03-03T03:58:53;96213.72;;;7.90;37.86
68141;BME280;54941;52.220;104.306;2023-03-03T04:01:19;96210.78;;;8.06;37.59
68141;BME280;54941;52.220;104.306;2023-03-03T04:03:45;96198.09;;;8.45;36.69
68141;BME280;54941;52.220;104.306;2023-03-03T04:06:12;96196.94;;;8.61;36.59
68141;BME280;54941;52.220;104.306;2023-03-03T04:08:40;96193.34;;;8.62;37.04
68141;BME280;54941;52.220;104.306;2023-03-03T04:11:06;96190.56;;;9.22;37.76
68141;BME280;54941;52.220;104.306;2023-03-03T04:13:33;96178.19;;;9.70;35.66
68141;BME280;54941;52.220;104.306;2023-03-03T04:15:59;96181.13;;;11.49;31.81
68141;BME280;54941;52.220;104.306;2023-03-03T04:18:26;96190.47;;;11.25;31.55
68141;BME280;54941;52.220;104.306;2023-03-03T04:20:52;96191.75;;;11.77;31.15
68141;BME280;54941;52.220;104.306;2023-03-03T04:23:19;96180.16;;;10.82;31.93
68141;BME280;54941;52.220;104.306;2023-03-03T04:25:48;96168.91;;;10.45;32.69
68141;BME280;54941;52.220;104.306;2023-03-03T04:28:15;96163.69;;;9.83;33.99
68141;BME280;54941;52.220;104.306;2023-03-03T04:30:42;96161.41;;;10.68;32.89
68141;BME280;54941;52.220;104.306;2023-03-03T04:33:08;96150.63;;;11.76;30.53
68141;BME280;54941;52.220;104.306;2023-03-03T04:35:35;96139.38;;;11.88;28.63
68141;BME280;54941;52.220;104.306;2023-03-03T04:38:01;96133.75;;;12.62;24.36
68141;BME280;54941;52.220;104.306;2023-03-03T04:40:28;96145.22;;;13.01;22.97
68141;BME280;54941;52.220;104.306;2023-03-03T04:42:56;96136.31;;;12.09;24.02
68141;BME280;54941;52.220;104.306;2023-03-03T04:45:22;96123.69;;;11.71;24.10
68141;BME280;54941;52.220;104.306;2023-03-03T04:47:48;96125.13;;;11.97;23.47
68141;BME280;54941;52.220;104.306;2023-03-03T04:50:15;96122.84;;;12.07;23.28
68141;BME280;54941;52.220;104.306;2023-03-03T04:52:41;96126.25;;;11.35;23.23
68141;BME280;54941;52.220;104.306;2023-03-03T04:55:08;96117.03;;;11.64;22.54
68141;BME280;54941;52.220;104.306;2023-03-03T04:57:35;96109.59;;;12.15;22.78
68141;BME280;54941;52.220;104.306;2023-03-03T05:00:03;96102.59;;;12.69;22.26
68141;BME280;54941;52.220;104.306;2023-03-03T05:02:31;96097.97;;;12.48;22.16
68141;BME280;54941;52.220;104.306;2023-03-03T05:04:57;96090.69;;;12.80;22.27
68141;BME280;54941;52.220;104.306;2023-03-03T05:07:24;96083.09;;;12.20;22.84
68141;BME280;54941;52.220;104.306;2023-03-03T05:09:50;96078.78;;;12.55;21.76
68141;BME280;54941;52.220;104.306;2023-03-03T05:12:17;96065.94;;;12.37;22.20
68141;BME280;54941;52.220;104.306;2023-03-03T05:14:43;96073.97;;;11.76;23.07
68141;BME280;54941;52.220;104.306;2023-03-03T05:17:11;96048.38;;;12.28;22.56
68141;BME280;54941;52.220;104.306;2023-03-03T05:19:37;96065.94;;;12.37;21.84
68141;BME280;54941;52.220;104.306;2023-03-03T05:22:04;96063.91;;;12.39;21.98
68141;BME280;54941;52.220;104.306;2023-03-03T05:24:30;96046.50;;;12.23;22.42
68141;BME280;54941;52.220;104.306;2023-03-03T05:26:56;96041.97;;;12.18;21.52
68141;BME280;54941;52.220;104.306;2023-03-03T05:29:23;96044.44;;;12.13;21.69
68141;BME280;54941;52.220;104.306;2023-03-03T05:31:49;96031.31;;;12.50;21.40
68141;BME280;54941;52.220;104.306;2023-03-03T05:34:17;96023.13;;;12.30;22.15
68141;BME280;54941;52.220;104.306;2023-03-03T05:36:44;96016.81;;;12.14;22.43
68141;BME280;54941;52.220;104.306;2023-03-03T05:39:10;96013.69;;;12.35;21.99
68141;BME280;54941;52.220;104.306;2023-03-03T05:41:37;96016.94;;;12.54;21.13
68141;BME280;54941;52.220;104.306;2023-03-03T05:44:03;96011.88;;;12.47;21.87
68141;BME280;54941;52.220;104.306;2023-03-03T05:46:29;95993.66;;;12.42;20.97
68141;BME280;54941;52.220;104.306;2023-03-03T05:48:56;95999.16;;;12.34;20.94
68141;BME280;54941;52.220;104.306;2023-03-03T05:51:24;95993.22;;;12.45;20.66
68141;BME280;54941;52.220;104.306;2023-03-03T05:53:50;95989.03;;;11.98;21.19
68141;BME280;54941;52.220;104.306;2023-03-03T05:56:16;95983.69;;;12.23;21.15
68141;BME280;54941;52.220;104.306;2023-03-03T05:58:43;95988.28;;;12.20;20.66
68141;BME280;54941;52.220;104.306;2023-03-03T06:01:09;95991.75;;;12.14;21.22
68141;BME280;54941;52.220;104.306;2023-03-03T06:03:36;95991.41;;;11.99;20.08
68141;BME280;54941;52.220;104.306;2023-03-03T06:06:02;95990.75;;;12.15;20.39
68141;BME280;54941;52.220;104.306;2023-03-03T06:08:30;95982.31;;;12.08;21.56
68141;BME280;54941;52.220;104.306;2023-03-03T06:10:57;95984.03;;;12.26;21.35
68141;BME280;54941;52.220;104.306;2023-03-03T06:13:23;95982.88;;;12.45;21.05
68141;BME280;54941;52.220;104.306;2023-03-03T06:15:49;95976.16;;;12.56;21.18
68141;BME280;54941;52.220;104.306;2023-03-03T06:18:16;95966.34;;;12.69;20.82
68141;BME280;54941;52.220;104.306;2023-03-03T06:20:42;95963.25;;;12.96;21.04
68141;BME280;54941;52.220;104.306;2023-03-03T06:23:09;95960.06;;;13.05;20.21
68141;BME280;54941;52.220;104.306;2023-03-03T06:25:38;95953.94;;;12.83;20.50
68141;BME280;54941;52.220;104.306;2023-03-03T06:28:04;95951.47;;;12.88;20.31
68141;BME280;54941;52.220;104.306;2023-03-03T06:30:32;95946.63;;;12.92;20.64
68141;BME280;54941;52.220;104.306;2023-03-03T06:32:58;95937.59;;;12.94;20.81
68141;BME280;54941;52.220;104.306;2023-03-03T06:35:24;95933.44;;;13.33;20.24
68141;BME280;54941;52.220;104.306;2023-03-03T06:37:51;95928.16;;;13.11;19.96
68141;BME280;54941;52.220;104.306;2023-03-03T06:40:18;95927.50;;;12.93;19.79
68141;BME280;54941;52.220;104.306;2023-03-03T06:42:46;95926.34;;;13.00;18.72
68141;BME280;54941;52.220;104.306;2023-03-03T06:45:12;95923.84;;;13.05;18.64
68141;BME280;54941;52.220;104.306;2023-03-03T06:47:39;95922.84;;;13.06;17.48
68141;BME280;54941;52.220;104.306;2023-03-03T06:50:07;95931.75;;;13.10;18.07
68141;BME280;54941;52.220;104.306;2023-03-03T06:52:33;95921.19;;;13.00;17.87
68141;BME280;54941;52.220;104.306;2023-03-03T06:55:01;95918.34;;;13.02;17.62
68141;BME280;54941;52.220;104.306;2023-03-03T06:57:35;95933.25;;;12.83;17.40
68141;BME280;54941;52.220;104.306;2023-03-03T07:00:14;95927.44;;;12.76;18.63
68141;BME280;54941;52.220;104.306;2023-03-03T07:02:41;95920.44;;;12.77;18.66
68141;BME280;54941;52.220;104.306;2023-03-03T07:05:12;95918.41;;;12.79;18.56
68141;BME280;54941;52.220;104.306;2023-03-03T07:07:39;95926.84;;;12.86;18.44
68141;BME280;54941;52.220;104.306;2023-03-03T07:10:10;95925.75;;;12.82;17.08
68141;BME280;54941;52.220;104.306;2023-03-03T07:12:38;95921.81;;;12.67;17.34
68141;BME280;54941;52.220;104.306;2023-03-03T07:15:15;95915.97;;;12.60;17.09
68141;BME280;54941;52.220;104.306;2023-03-03T07:17:44;95907.78;;;12.63;18.05
68141;BME280;54941;52.220;104.306;2023-03-03T07:20:17;95909.81;;;12.61;17.55
68141;BME280;54941;52.220;104.306;2023-03-03T07:22:44;95903.66;;;12.51;17.87
68141;BME280;54941;52.220;104.306;2023-03-03T07:25:19;95918.25;;;12.57;17.76
68141;BME280;54941;52.220;104.306;2023-03-03T07:27:46;95899.72;;;12.48;17.27
68141;BME280;54941;52.220;104.306;2023-03-03T07:30:23;95889.00;;;12.68;17.15
68141;BME280;54941;52.220;104.306;2023-03-03T07:32:52;95883.88;;;12.85;16.80
68141;BME280;54941;52.220;104.306;2023-03-03T07:35:36;95895.63;;;12.64;16.71
68141;BME280;54941;52.220;104.306;2023-03-03T07:38:15;95891.81;;;12.66;17.83
68141;BME280;54941;52.220;104.306;2023-03-03T07:40:47;95887.06;;;12.75;17.49
68141;BME280;54941;52.220;104.306;2023-03-03T07:43:35;95888.00;;;12.57;17.51
68141;BME280;54941;52.220;104.306;2023-03-03T07:46:16;95878.00;;;12.61;17.73
68141;BME280;54941;52.220;104.306;2023-03-03T07:48:45;95879.38;;;12.52;16.78
68141;BME280;54941;52.220;104.306;2023-03-03T07:51:17;95874.00;;;12.42;17.14
68141;BME280;54941;52.220;104.306;2023-03-03T07:53:44;95862.66;;;12.31;17.69
68141;BME280;54941;52.220;104.306;2023-03-03T07:56:17;95877.94;;;12.33;17.96
68141;BME280;54941;52.220;104.306;2023-03-03T07:58:46;95876.50;;;12.37;17.47
68141;BME280;54941;52.220;104.306;2023-03-03T08:01:41;95876.81;;;12.40;16.85
68141;BME280;54941;52.220;104.306;2023-03-03T08:04:17;95876.16;;;12.33;17.97
68141;BME280;54941;52.220;104.306;2023-03-03T08:06:46;95878.03;;;12.49;17.65
68141;BME280;54941;52.220;104.306;2023-03-03T08:09:31;95877.47;;;12.47;17.09
68141;BME280;54941;52.220;104.306;2023-03-03T08:14:51;95863.53;;;12.48;17.90
68141;BME280;54941;52.220;104.306;2023-03-03T08:17:21;95863.41;;;12.55;17.53
68141;BME280;54941;52.220;104.306;2023-03-03T08:19:48;95855.78;;;12.48;17.34
68141;BME280;54941;52.220;104.306;2023-03-03T08:22:17;95850.94;;;12.52;17.86
68141;BME280;54941;52.220;104.306;2023-03-03T08:24:44;95855.34;;;12.40;17.81
68141;BME280;54941;52.220;104.306;2023-03-03T08:27:10;95859.84;;;12.44;17.70
68141;BME280;54941;52.220;104.306;2023-03-03T08:29:36;95854.13;;;12.31;17.85
68141;BME280;54941;52.220;104.306;2023-03-03T08:32:03;95851.22;;;12.27;18.16
68141;BME280;54941;52.220;104.306;2023-03-03T08:34:31;95853.72;;;12.10;18.31
68141;BME280;54941;52.220;104.306;2023-03-03T08:36:58;95851.16;;;11.87;18.75
68141;BME280;54941;52.220;104.306;2023-03-03T08:39:24;95825.91;;;11.89;18.67
68141;BME280;54941;52.220;104.306;2023-03-03T08:41:51;95842.38;;;12.00;18.10
68141;BME280;54941;52.220;104.306;2023-03-03T08:44:17;95847.56;;;11.88;18.99
68141;BME280;54941;52.220;104.306;2023-03-03T08:46:44;95852.50;;;11.90;18.41
68141;BME280;54941;52.220;104.306;2023-03-03T08:49:10;95846.88;;;11.81;18.63
68141;BME280;54941;52.220;104.306;2023-03-03T08:51:38;95845.97;;;11.76;18.77
68141;BME280;54941;52.220;104.306;2023-03-03T08:54:04;95847.22;;;11.73;19.19
68141;BME280;54941;52.220;104.306;2023-03-03T08:56:31;95853.06;;;11.80;18.91
68141;BME280;54941;52.220;104.306;2023-03-03T08:58:57;95848.22;;;11.72;19.23
68141;BME280;54941;52.220;104.306;2023-03-03T09:01:24;95855.97;;;11.72;19.34
68141;BME280;54941;52.220;104.306;2023-03-03T09:03:53;95850.81;;;11.72;19.40
68141;BME280;54941;52.220;104.306;2023-03-03T09:06:20;95841.84;;;11.75;19.33
68141;BME280;54941;52.220;104.306;2023-03-03T09:08:48;95849.31;;;11.64;19.76
68141;BME280;54941;52.220;104.306;2023-03-03T09:11:21;95848.44;;;11.70;19.27
68141;BME280;54941;52.220;104.306;2023-03-03T09:13:49;95841.34;;;11.66;19.06
68141;BME280;54941;52.220;104.306;2023-03-03T09:16:16;95850.22;;;11.58;19.49
68141;BME280;54941;52.220;104.306;2023-03-03T09:18:43;95848.97;;;11.49;19.79
68141;BME280;54941;52.220;104.306;2023-03-03T09:21:21;95845.91;;;11.29;20.52
68141;BME280;54941;52.220;104.306;2023-03-03T09:23:53;95848.81;;;11.21;20.70
68141;BME280;54941;52.220;104.306;2023-03-03T09:26:28;95845.50;;;11.02;21.38
68141;BME280;54941;52.220;104.306;2023-03-03T09:28:59;95844.41;;;10.80;22.65
68141;BME280;54941;52.220;104.306;2023-03-03T09:31:38;95837.22;;;10.70;22.50
68141;BME280;54941;52.220;104.306;2023-03-03T09:34:15;95839.59;;;10.54;23.07
68141;BME280;54941;52.220;104.306;2023-03-03T09:36:43;95837.13;;;10.29;23.90
68141;BME280;54941;52.220;104.306;2023-03-03T09:39:16;95850.88;;;10.23;23.54
68141;BME280;54941;52.220;104.306;2023-03-03T09:42:04;95843.31;;;10.03;24.20
68141;BME280;54941;52.220;104.306;2023-03-03T09:47:43;95833.38;;;9.89;24.52
68141;BME280;54941;52.220;104.306;2023-03-03T09:50:25;95839.03;;;9.79;24.44
68141;BME280;54941;52.220;104.306;2023-03-03T09:53:04;95837.28;;;9.73;24.63
68141;BME280;54941;52.220;104.306;2023-03-03T09:55:43;95839.97;;;9.60;24.99
68141;BME280;54941;52.220;104.306;2023-03-03T09:58:26;95837.47;;;9.53;24.96
68141;BME280;54941;52.220;104.306;2023-03-03T10:01:05;95833.38;;;9.46;25.33
68141;BME280;54941;52.220;104.306;2023-03-03T10:06:30;95837.09;;;9.25;26.32
68141;BME280;54941;52.220;104.306;2023-03-03T10:11:56;95828.75;;;8.98;26.39
68141;BME280;54941;52.220;104.306;2023-03-03T10:14:37;95820.16;;;8.86;27.02
68141;BME280;54941;52.220;104.306;2023-03-03T10:17:18;95819.81;;;8.76;26.74
68141;BME280;54941;52.220;104.306;2023-03-03T10:19:57;95818.41;;;8.80;25.81
68141;BME280;54941;52.220;104.306;2023-03-03T10:22:33;95814.78;;;8.94;25.47
68141;BME280;54941;52.220;104.306;2023-03-03T10:25:20;95814.72;;;9.01;24.90
68141;BME280;54941;52.220;104.306;2023-03-03T10:31:00;95818.47;;;9.05;25.49
68141;BME280;54941;52.220;104.306;2023-03-03T10:33:36;95822.59;;;9.06;24.88
68141;BME280;54941;52.220;104.306;2023-03-03T10:36:24;95815.72;;;9.00;25.29
68141;BME280;54941;52.220;104.306;2023-03-03T10:39:02;95817.88;;;8.71;25.53
68141;BME280;54941;52.220;104.306;2023-03-03T10:41:46;95818.03;;;8.76;25.30
68141;BME280;54941;52.220;104.306;2023-03-03T10:44:30;95812.22;;;8.94;24.25
68141;BME280;54941;52.220;104.306;2023-03-03T10:47:21;95801.22;;;8.80;24.73
68141;BME280;54941;52.220;104.306;2023-03-03T10:49:57;95802.00;;;8.81;24.38
68141;BME280;54941;52.220;104.306;2023-03-03T10:52:32;95806.97;;;8.76;24.73
68141;BME280;54941;52.220;104.306;2023-03-03T10:55:14;95797.28;;;8.78;24.50
68141;BME280;54941;52.220;104.306;2023-03-03T10:57:50;95792.19;;;8.71;24.86
68141;BME280;54941;52.220;104.306;2023-03-03T11:00:23;95795.84;;;8.51;25.15
68141;BME280;54941;52.220;104.306;2023-03-03T11:06:05;95798.16;;;8.14;26.22
68141;BME280;54941;52.220;104.306;2023-03-03T11:08:39;95797.59;;;8.06;25.81
68141;BME280;54941;52.220;104.306;2023-03-03T11:11:12;95792.91;;;7.90;26.75
68141;BME280;54941;52.220;104.306;2023-03-03T11:13:47;95798.25;;;7.81;26.88
68141;BME280;54941;52.220;104.306;2023-03-03T11:16:36;95796.31;;;7.70;27.09
68141;BME280;54941;52.220;104.306;2023-03-03T11:19:24;95794.16;;;7.61;27.08
68141;BME280;54941;52.220;104.306;2023-03-03T11:22:02;95794.97;;;7.55;26.96
68141;BME280;54941;52.220;104.306;2023-03-03T11:24:40;95789.41;;;7.58;26.86
68141;BME280;54941;52.220;104.306;2023-03-03T11:27:23;95785.91;;;7.52;27.26
68141;BME280;54941;52.220;104.306;2023-03-03T11:30:05;95781.94;;;7.56;26.91
68141;BME280;54941;52.220;104.306;2023-03-03T11:32:43;95774.47;;;7.48;27.06
68141;BME280;54941;52.220;104.306;2023-03-03T11:35:24;95782.13;;;7.55;27.13
68141;BME280;54941;52.220;104.306;2023-03-03T11:38:02;95788.47;;;7.52;27.55
68141;BME280;54941;52.220;104.306;2023-03-03T11:40:44;95784.50;;;7.43;27.49
68141;BME280;54941;52.220;104.306;2023-03-03T11:43:16;95795.56;;;7.37;27.67
68141;BME280;54941;52.220;104.306;2023-03-03T11:45:46;95786.31;;;7.36;27.21
68141;BME280;54941;52.220;104.306;2023-03-03T11:48:17;95784.72;;;7.28;27.70
68141;BME280;54941;52.220;104.306;2023-03-03T11:50:53;95779.59;;;7.42;26.76
68141;BME280;54941;52.220;104.306;2023-03-03T11:53:31;95772.13;;;7.33;27.30
68141;BME280;54941;52.220;104.306;2023-03-03T11:56:09;95764.22;;;7.28;27.37
68141;BME280;54941;52.220;104.306;2023-03-03T11:58:43;95755.19;;;7.13;27.32
68141;BME280;54941;52.220;104.306;2023-03-03T12:01:17;95752.44;;;7.01;28.11
68141;BME280;54941;52.220;104.306;2023-03-03T12:03:48;95753.00;;;6.97;27.76
68141;BME280;54941;52.220;104.306;2023-03-03T12:06:24;95755.97;;;6.87;28.59
68141;BME280;54941;52.220;104.306;2023-03-03T12:09:16;95756.16;;;6.72;28.47
68141;BME280;54941;52.220;104.306;2023-03-03T12:11:52;95754.75;;;6.63;28.46
68141;BME280;54941;52.220;104.306;2023-03-03T12:15:03;95751.19;;;6.51;28.97
68141;BME280;54941;52.220;104.306;2023-03-03T12:17:45;95748.81;;;6.43;29.67
68141;BME280;54941;52.220;104.306;2023-03-03T12:20:23;95753.13;;;6.36;29.50
68141;BME280;54941;52.220;104.306;2023-03-03T12:23:01;95739.34;;;6.30;29.43
68141;BME280;54941;52.220;104.306;2023-03-03T12:25:36;95739.13;;;6.19;30.14
68141;BME280;54941;52.220;104.306;2023-03-03T12:28:09;95738.34;;;6.25;29.45
68141;BME280;54941;52.220;104.306;2023-03-03T12:30:59;95739.69;;;6.21;29.92
68141;BME280;54941;52.220;104.306;2023-03-03T12:33:37;95745.00;;;6.13;29.72
68141;BME280;54941;52.220;104.306;2023-03-03T12:36:17;95750.16;;;6.26;29.92
68141;BME280;54941;52.220;104.306;2023-03-03T12:38:51;95746.97;;;6.17;29.59
68141;BME280;54941;52.220;104.306;2023-03-03T12:41:23;95746.13;;;5.91;30.74
68141;BME280;54941;52.220;104.306;2023-03-03T12:43:57;95742.34;;;5.86;30.66
68141;BME280;54941;52.220;104.306;2023-03-03T12:46:34;95740.88;;;6.12;29.58
68141;BME280;54941;52.220;104.306;2023-03-03T12:49:05;95746.69;;;5.93;29.82
68141;BME280;54941;52.220;104.306;2023-03-03T12:51:37;95752.16;;;5.83;30.27
68141;BME280;54941;52.220;104.306;2023-03-03T12:54:23;95747.22;;;5.81;30.58
68141;BME280;54941;52.220;104.306;2023-03-03T12:57:00;95752.06;;;5.70;31.02
68141;BME280;54941;52.220;104.306;2023-03-03T12:59:38;95750.19;;;5.51;31.90
68141;BME280;54941;52.220;104.306;2023-03-03T13:05:18;95743.13;;;5.46;30.94
68141;BME280;54941;52.220;104.306;2023-03-03T13:07:52;95737.69;;;5.62;30.92
68141;BME280;54941;52.220;104.306;2023-03-03T13:10:28;95740.91;;;5.77;30.39
68141;BME280;54941;52.220;104.306;2023-03-03T13:13:06;95734.78;;;5.65;30.96
68141;BME280;54941;52.220;104.306;2023-03-03T13:15:39;95731.06;;;5.74;30.54
68141;BME280;54941;52.220;104.306;2023-03-03T13:18:23;95723.94;;;5.70;30.35
68141;BME280;54941;52.220;104.306;2023-03-03T13:20:54;95725.91;;;5.68;30.40
68141;BME280;54941;52.220;104.306;2023-03-03T13:23:34;95735.94;;;5.69;30.29
68141;BME280;54941;52.220;104.306;2023-03-03T13:26:07;95717.28;;;5.69;31.17